Terminal Aerodrome Forecast
Issued by NWS Charleston, SC

Home | Current Version | Previous Version | Text Only | Print | Product List | Glossary On
Versions: 1 2 3 4 5 6 7 8 9 10 11 12 13 14 15 16 17 18 19
327
FTUS42 KCHS 200421 AAC
TAFSAV
TAF AMD
KSAV 200421Z 2004/2024 12004KT 1SM BR OVC002
      TEMPO 2004/2007 1/4SM FG
     FM200700 18003KT P6SM BKN025
      TEMPO 2009/2013 4SM -SHRA SCT004 OVC012
     FM201600 22011KT P6SM BKN035=

USA.gov is the U.S. government's official web portal to all federal, state and local government web resources and services.